Time;durP1;ratioP1;P1;durP2;ratioP2;P2;SDS_P1;SDS_P2;PMS_P1;PMS_P2;Temp;Humidity;BMP_temperature;BMP_pressure;BME280_temperature;BME280_humidity;BME280_pressure;Samples;Min_cycle;Max_cycle;Signal;HPM_P1;HPM_P2
2022/01/18 00:00:09;;;;;;;5.18;3.58;;;;;;;-1.37;100.00;96687.44;5021598;28;20029;-66
2022/01/18 00:02:37;;;;;;;5.65;3.85;;;;;;;-1.39;100.00;96680.69;5034587;28;20456;-66
2022/01/18 00:05:03;;;;;;;5.38;4.00;;;;;;;-1.40;100.00;96681.69;5034531;28;20391;-67
2022/01/18 00:07:28;;;;;;;6.85;4.05;;;;;;;-1.42;100.00;96673.91;5032983;28;20021;-66
2022/01/18 00:09:54;;;;;;;6.05;4.15;;;;;;;-1.41;100.00;96670.34;5034288;28;20029;-68
2022/01/18 00:18:06;;;;;;;5.90;4.05;;;;;;;-1.50;100.00;96652.84;5034104;28;20401;-67
2022/01/18 00:20:54;;;;;;;6.22;4.03;;;;;;;-1.54;100.00;96652.31;5034086;28;20044;-66
2022/01/18 00:23:21;;;;;;;6.53;4.00;;;;;;;-1.54;100.00;96654.09;5034176;28;20437;-66
2022/01/18 00:25:51;;;;;;;7.43;4.13;;;;;;;-1.56;100.00;96649.00;5034335;28;20057;-65
2022/01/18 00:28:17;;;;;;;5.95;4.40;;;;;;;-1.58;100.00;96650.16;5034340;28;20018;-66
2022/01/18 00:36:24;;;;;;;5.50;4.10;;;;;;;-1.69;100.00;96640.69;5053920;28;20039;-66
2022/01/18 00:38:49;;;;;;;5.30;3.38;;;;;;;-1.72;100.00;96648.88;5053556;28;20337;-66
2022/01/18 00:41:17;;;;;;;8.35;4.47;;;;;;;-1.76;100.00;96644.88;5053810;28;20032;-62
2022/01/18 00:43:43;;;;;;;7.88;4.40;;;;;;;-1.84;100.00;96650.09;5053529;28;20100;-67
2022/01/18 00:46:11;;;;;;;5.78;3.95;;;;;;;-1.80;100.00;96648.78;5053735;28;20108;-67
2022/01/18 00:48:37;;;;;;;5.82;4.00;;;;;;;-1.77;100.00;96645.84;5053578;28;20020;-67
2022/01/18 00:51:05;;;;;;;6.97;4.13;;;;;;;-1.73;100.00;96641.97;5053509;28;20476;-67
2022/01/18 00:53:35;;;;;;;6.43;4.38;;;;;;;-1.75;100.00;96631.59;5053280;28;20032;-67
2022/01/18 00:58:36;;;;;;;10.18;4.68;;;;;;;-1.80;100.00;96630.41;5052399;28;20028;-67
2022/01/18 01:01:02;;;;;;;7.78;4.68;;;;;;;-1.80;100.00;96631.22;5033388;28;20053;-66
2022/01/18 01:03:28;;;;;;;7.07;3.88;;;;;;;-1.82;100.00;96630.56;5033287;28;20030;-66
2022/01/18 01:05:53;;;;;;;6.90;4.55;;;;;;;-1.83;100.00;96617.59;5033167;28;20025;-67
2022/01/18 01:08:21;;;;;;;6.78;4.38;;;;;;;-1.84;100.00;96621.19;5033274;28;20022;-67
2022/01/18 01:10:47;;;;;;;6.50;4.35;;;;;;;-1.85;100.00;96609.00;5033266;28;20025;-67
2022/01/18 01:13:13;;;;;;;6.13;4.00;;;;;;;-1.85;100.00;96601.97;5033099;28;20027;-66
2022/01/18 01:16:03;;;;;;;6.97;4.20;;;;;;;-1.84;100.00;96600.19;5032045;28;20025;-67
2022/01/18 01:18:42;;;;;;;8.93;4.93;;;;;;;-1.76;100.00;96602.84;5032741;28;20021;-66
2022/01/18 01:32:37;;;;;;;8.95;4.85;;;;;;;-0.93;100.00;96561.22;5032828;28;20431;-66
2022/01/18 01:35:10;;;;;;;7.07;4.57;;;;;;;-0.69;100.00;96552.59;5032625;28;20034;-66
2022/01/18 01:45:35;;;;;;;6.45;4.20;;;;;;;-0.26;100.00;96530.50;5032553;28;20021;-64
2022/01/18 01:48:02;;;;;;;6.15;4.13;;;;;;;-0.13;100.00;96522.94;5031154;28;20606;-67
2022/01/18 01:50:42;;;;;;;6.00;3.42;;;;;;;0.04;100.00;96529.06;5031361;28;20030;-67
2022/01/18 01:53:08;;;;;;;6.78;4.20;;;;;;;0.12;100.00;96515.06;5032501;28;20033;-66
2022/01/18 01:55:33;;;;;;;6.30;3.90;;;;;;;0.14;100.00;96515.72;5031137;28;20029;-67
2022/01/18 01:57:59;;;;;;;5.63;3.47;;;;;;;0.18;100.00;96515.22;5032392;28;20025;-67
2022/01/18 02:00:26;;;;;;;6.32;3.50;;;;;;;0.18;100.00;96514.41;5010815;28;20128;-67
2022/01/18 02:02:51;;;;;;;5.97;3.67;;;;;;;0.17;100.00;96516.22;5026469;28;20026;-67
2022/01/18 02:05:17;;;;;;;7.28;3.75;;;;;;;0.08;100.00;96524.28;5024468;28;20087;-67
2022/01/18 02:07:42;;;;;;;7.50;3.92;;;;;;;0.01;100.00;96528.56;5030918;28;20017;-67
2022/01/18 02:10:10;;;;;;;6.40;3.95;;;;;;;-0.06;100.00;96531.84;5032171;28;20033;-66
2022/01/18 02:12:36;;;;;;;8.25;4.60;;;;;;;-0.07;100.00;96537.28;5030548;28;20057;-66
2022/01/18 02:15:11;;;;;;;7.80;4.53;;;;;;;-0.12;100.00;96529.03;5031875;28;20017;-67
2022/01/18 02:23:29;;;;;;;6.32;3.80;;;;;;;-0.51;100.00;96526.19;5032025;28;20101;-67
2022/01/18 02:25:55;;;;;;;7.57;4.53;;;;;;;-0.69;100.00;96535.00;5030557;28;20112;-67
2022/01/18 02:28:23;;;;;;;5.68;3.50;;;;;;;-0.86;100.00;96532.47;5031710;28;20013;-67
2022/01/18 02:30:49;;;;;;;6.05;4.18;;;;;;;-1.07;100.00;96538.13;5031881;28;20048;-67
2022/01/18 02:33:15;;;;;;;6.60;4.10;;;;;;;-1.27;100.00;96540.16;5030700;28;20064;-67
2022/01/18 02:35:40;;;;;;;7.50;3.53;;;;;;;-1.51;100.00;96543.47;5031544;28;20030;-66
2022/01/18 02:38:06;;;;;;;6.25;3.63;;;;;;;-1.62;100.00;96556.84;5031622;28;20026;-66
2022/01/18 02:40:32;;;;;;;6.70;4.20;;;;;;;-1.74;100.00;96553.63;5030474;28;20025;-67
2022/01/18 02:43:01;;;;;;;5.32;3.65;;;;;;;-1.82;100.00;96558.81;5030054;28;20041;-66
2022/01/18 02:45:27;;;;;;;6.22;3.88;;;;;;;-1.94;100.00;96560.03;5026850;28;20033;-66
2022/01/18 02:47:54;;;;;;;5.50;3.70;;;;;;;-2.05;100.00;96564.53;5025553;28;20057;-64
2022/01/18 02:50:21;;;;;;;6.30;4.22;;;;;;;-2.16;100.00;96574.44;5031443;28;20033;-65
2022/01/18 02:52:46;;;;;;;7.65;4.18;;;;;;;-2.27;100.00;96572.88;5030196;28;20106;-65
2022/01/18 02:55:12;;;;;;;8.32;4.07;;;;;;;-2.36;100.00;96571.13;5031447;28;20021;-67
2022/01/18 02:57:54;;;;;;;6.72;3.70;;;;;;;-2.43;100.00;96580.56;5031295;28;20018;-66
2022/01/18 03:00:31;;;;;;;6.15;3.90;;;;;;;-2.50;100.00;96575.06;5030383;28;20706;-65
2022/01/18 03:03:14;;;;;;;6.20;3.75;;;;;;;-2.47;100.00;96587.91;5031247;28;20037;-64
2022/01/18 03:05:46;;;;;;;7.95;4.32;;;;;;;-2.35;100.00;96581.47;5026280;28;20024;-67
2022/01/18 03:08:12;;;;;;;7.03;4.07;;;;;;;-2.29;100.00;96582.66;5026824;28;20023;-65
2022/01/18 03:10:40;;;;;;;7.03;4.68;;;;;;;-2.15;100.00;96584.78;5026204;28;20272;-65
2022/01/18 03:13:06;;;;;;;5.93;4.20;;;;;;;-2.10;100.00;96584.34;5030745;28;20029;-66
2022/01/18 03:15:33;;;;;;;8.85;4.95;;;;;;;-2.08;100.00;96585.81;5031066;28;20029;-67
2022/01/18 03:18:00;;;;;;;9.07;5.38;;;;;;;-2.06;100.00;96586.53;5031171;28;20116;-66
2022/01/18 03:20:26;;;;;;;7.55;4.93;;;;;;;-2.05;100.00;96576.84;5030894;28;20160;-66
2022/01/18 03:22:52;;;;;;;7.97;4.75;;;;;;;-2.03;100.00;96579.31;5029862;28;20033;-66
